Aldrich, Missouri
Current Conditions -  °F | °C
As of 5:24 PM on Monday 22 Dec 2014 (Local Time) from KSGF Reporting Station
Overcast Overcast  
Wind Chill: 45°   Ceiling: 900
Heat Index: 49°   Visibility: 10mi
Dew Point: 47°   Wind: 10mph
Humidity: 93%   Direction: 220°SW
Pressure: 29.5"   Gusts: NA
Location:  37.55°N, 93.55°W
Report Text: KSGF 222324Z 22009KT 10SM BKN009 BKN014 OVC023 09/08 A2950 RMK AO2 RAE24 CIG 005V010 P0001 T00940083
Loading
Personal Weather Stations






























Interactive Weather Map New forecast layout! Learn more

10-Day Weather Forecast

Advertisements
Track Severe Weather on mobile